createdAt,value
2022-12-28T00:00:55.395Z,3.56
2022-12-28T00:01:55.392Z,3.63
2022-12-28T00:02:55.370Z,3.67
2022-12-28T00:03:55.341Z,3.62
2022-12-28T00:04:55.356Z,3.68
2022-12-28T00:05:55.304Z,3.72
2022-12-28T00:06:55.291Z,3.70
2022-12-28T00:07:55.267Z,3.78
2022-12-28T00:08:55.251Z,3.72
2022-12-28T00:09:55.265Z,3.64
2022-12-28T00:11:08.085Z,3.63
2022-12-28T00:11:56.200Z,3.71
2022-12-28T00:12:55.183Z,3.75
2022-12-28T00:13:55.188Z,3.67
2022-12-28T00:14:55.196Z,3.71
2022-12-28T00:15:55.197Z,3.63
2022-12-28T00:16:55.118Z,3.64
2022-12-28T00:17:55.103Z,3.60
2022-12-28T00:18:55.122Z,3.68
2022-12-28T00:19:55.435Z,3.64
2022-12-28T00:20:55.049Z,3.68
2022-12-28T00:21:55.029Z,3.70
2022-12-28T00:22:55.008Z,3.74
2022-12-28T00:23:57.261Z,3.80
2022-12-28T00:24:55.003Z,3.77
2022-12-28T00:25:54.966Z,3.64
2022-12-28T00:26:54.941Z,3.71
2022-12-28T00:27:54.921Z,3.70
2022-12-28T00:28:59.938Z,3.78
2022-12-28T00:29:56.927Z,3.86
2022-12-28T00:30:54.934Z,3.86
2022-12-28T00:31:54.948Z,3.89
2022-12-28T00:32:54.860Z,3.88
2022-12-28T00:33:54.832Z,3.81
2022-12-28T00:34:54.843Z,3.86
2022-12-28T00:35:54.789Z,3.81
2022-12-28T00:37:11.937Z,3.93
2022-12-28T00:37:55.763Z,3.81
2022-12-28T00:38:54.739Z,3.86
2022-12-28T00:39:54.743Z,3.78
2022-12-28T00:40:54.698Z,3.88
2022-12-28T00:41:54.684Z,3.89
2022-12-28T00:42:54.671Z,3.89
2022-12-28T00:43:54.642Z,3.95
2022-12-28T00:44:54.870Z,3.86
2022-12-28T00:45:54.658Z,3.81
2022-12-28T00:46:54.612Z,3.90
2022-12-28T00:47:54.606Z,3.92
2022-12-28T00:48:54.559Z,3.86
2022-12-28T00:49:54.586Z,3.90
2022-12-28T00:50:54.532Z,3.93
2022-12-28T00:51:54.518Z,3.82
2022-12-28T00:52:54.493Z,3.86
2022-12-28T00:53:54.482Z,3.89
2022-12-28T00:54:54.764Z,3.88
2022-12-28T00:55:54.444Z,3.84
2022-12-28T00:56:54.433Z,3.88
2022-12-28T00:57:54.401Z,3.90
2022-12-28T00:58:54.404Z,3.82
2022-12-28T00:59:54.413Z,3.89
2022-12-28T01:00:54.395Z,3.88
2022-12-28T01:01:54.492Z,3.89
2022-12-28T01:02:54.396Z,3.90
2022-12-28T01:03:54.304Z,3.90
2022-12-28T01:04:54.349Z,3.82
2022-12-28T01:05:54.271Z,3.89
2022-12-28T01:06:54.317Z,3.90
2022-12-28T01:07:54.237Z,3.80
2022-12-28T01:08:54.228Z,3.89
2022-12-28T01:09:54.229Z,4.00
2022-12-28T01:10:54.212Z,3.92
2022-12-28T01:11:54.186Z,3.95
2022-12-28T01:12:54.181Z,3.89
2022-12-28T01:13:54.158Z,3.89
2022-12-28T01:14:54.166Z,3.89
2022-12-28T01:15:54.161Z,3.89
2022-12-28T01:16:54.125Z,4.00
2022-12-28T01:17:54.084Z,3.99
2022-12-28T01:18:54.061Z,3.99
2022-12-28T01:19:54.272Z,4.00
2022-12-28T01:20:55.017Z,3.90
2022-12-28T01:21:55.003Z,3.88
2022-12-28T01:22:53.983Z,3.96
2022-12-28T01:23:53.974Z,3.92
2022-12-28T01:24:53.994Z,3.90
2022-12-28T01:25:53.934Z,3.86
2022-12-28T01:26:53.917Z,3.92
2022-12-28T01:27:53.899Z,3.89
2022-12-28T01:28:53.874Z,3.93
2022-12-28T01:29:53.869Z,4.00
2022-12-28T01:30:53.876Z,3.95
2022-12-28T01:31:53.883Z,3.89
2022-12-28T01:32:53.822Z,3.90
2022-12-28T01:33:53.808Z,3.89
2022-12-28T01:34:53.794Z,3.90
2022-12-28T01:35:53.794Z,3.81
2022-12-28T01:36:53.747Z,3.86
2022-12-28T01:37:53.738Z,3.88
2022-12-28T01:38:53.735Z,3.88
2022-12-28T01:39:53.703Z,3.93
2022-12-28T01:40:53.704Z,3.78
2022-12-28T01:41:53.672Z,3.81
2022-12-28T01:42:53.646Z,3.90
2022-12-28T01:43:53.667Z,3.89
2022-12-28T01:44:53.619Z,4.02
2022-12-28T01:45:53.648Z,3.88
2022-12-28T01:46:53.589Z,4.00
2022-12-28T01:47:53.578Z,4.00
2022-12-28T01:48:53.539Z,3.90
2022-12-28T01:49:53.585Z,3.93
2022-12-28T01:50:53.544Z,3.98
2022-12-28T01:51:53.502Z,3.86
2022-12-28T01:52:53.468Z,3.89
2022-12-28T01:53:53.459Z,3.90
2022-12-28T01:54:53.440Z,3.93
2022-12-28T01:55:53.450Z,3.89
2022-12-28T01:56:53.423Z,3.89
2022-12-28T01:57:53.393Z,3.92
2022-12-28T01:58:53.370Z,3.92
2022-12-28T01:59:53.352Z,3.90
2022-12-28T02:00:53.425Z,4.06
2022-12-28T02:01:53.389Z,4.04
2022-12-28T02:02:53.336Z,4.00
2022-12-28T02:03:53.281Z,3.98
2022-12-28T02:04:53.283Z,4.00
2022-12-28T02:05:53.295Z,4.07
2022-12-28T02:06:53.241Z,3.96
2022-12-28T02:07:53.219Z,4.04
2022-12-28T02:08:53.204Z,3.98
2022-12-28T02:10:43.530Z,4.00
2022-12-28T02:10:54.203Z,4.07
2022-12-28T02:11:53.149Z,4.11
2022-12-28T02:12:53.158Z,4.07
2022-12-28T02:13:53.108Z,4.11
2022-12-28T02:14:53.090Z,4.11
2022-12-28T02:15:53.100Z,4.08
2022-12-28T02:16:53.100Z,4.17
2022-12-28T02:17:53.037Z,4.13
2022-12-28T02:18:53.035Z,4.18
2022-12-28T02:19:53.024Z,4.13
2022-12-28T02:20:53.026Z,4.08
2022-12-28T02:21:52.994Z,4.13
2022-12-28T02:22:52.957Z,4.10
2022-12-28T02:23:52.951Z,4.13
2022-12-28T02:25:11.394Z,3.98
2022-12-28T02:25:53.941Z,4.08
2022-12-28T02:26:52.887Z,4.16
2022-12-28T02:27:52.872Z,4.18
2022-12-28T02:28:52.846Z,4.31
2022-12-28T02:29:52.839Z,4.28
2022-12-28T02:30:52.878Z,4.25
2022-12-28T02:31:52.808Z,4.20
2022-12-28T02:32:52.787Z,4.21
2022-12-28T02:33:52.768Z,4.21
2022-12-28T02:34:52.738Z,4.16
2022-12-28T02:35:52.763Z,4.10
2022-12-28T02:36:52.711Z,4.17
2022-12-28T02:37:52.687Z,4.17
2022-12-28T02:38:52.688Z,4.11
2022-12-28T02:39:52.657Z,4.16
2022-12-28T02:40:52.680Z,4.13
2022-12-28T02:41:52.633Z,4.17
2022-12-28T02:42:52.620Z,4.20
2022-12-28T02:43:52.596Z,4.21
2022-12-28T02:44:52.579Z,4.28
2022-12-28T02:45:52.619Z,4.34
2022-12-28T02:46:52.540Z,4.21
2022-12-28T02:47:52.524Z,4.20
2022-12-28T02:48:52.505Z,4.20
2022-12-28T02:49:52.475Z,4.24
2022-12-28T02:50:53.523Z,4.26
2022-12-28T02:51:52.462Z,4.21
2022-12-28T02:52:52.437Z,4.32
2022-12-28T02:53:52.414Z,4.28
2022-12-28T02:54:52.405Z,4.25
2022-12-28T02:55:52.410Z,4.35
2022-12-28T02:56:52.381Z,4.35
2022-12-28T02:57:52.443Z,4.39
2022-12-28T02:58:53.345Z,4.29
2022-12-28T02:59:52.320Z,4.35
2022-12-28T03:00:52.334Z,4.38
2022-12-28T03:01:52.455Z,4.32
2022-12-28T03:02:52.352Z,4.35
2022-12-28T03:03:52.278Z,4.42
2022-12-28T03:04:52.228Z,4.43
2022-12-28T03:05:52.245Z,4.39
2022-12-28T03:06:52.222Z,4.51
2022-12-28T03:07:52.191Z,4.51
2022-12-28T03:08:52.164Z,4.56
2022-12-28T03:09:52.139Z,4.50
2022-12-28T03:10:52.158Z,4.51
2022-12-28T03:11:52.109Z,4.44
2022-12-28T03:12:52.312Z,4.51
2022-12-28T03:13:52.094Z,4.49
2022-12-28T03:14:52.067Z,4.51
2022-12-28T03:15:52.089Z,4.49
2022-12-28T03:16:52.041Z,4.46
2022-12-28T03:17:52.037Z,4.50
2022-12-28T03:18:51.992Z,4.57
2022-12-28T03:19:51.978Z,4.51
2022-12-28T03:21:25.519Z,4.57
2022-12-28T03:21:51.960Z,4.53
2022-12-28T03:22:51.932Z,4.57
2022-12-28T03:23:51.923Z,4.57
2022-12-28T03:24:51.895Z,4.64
2022-12-28T03:25:51.908Z,4.59
2022-12-28T03:26:51.860Z,4.49
2022-12-28T03:27:51.849Z,4.65
2022-12-28T03:28:51.839Z,4.57
2022-12-28T03:29:51.819Z,4.57
2022-12-28T03:30:51.878Z,4.50
2022-12-28T03:31:51.788Z,4.51
2022-12-28T03:32:51.785Z,4.51
2022-12-28T03:33:51.748Z,4.44
2022-12-28T03:34:51.747Z,4.44
2022-12-28T03:35:51.746Z,4.39
2022-12-28T03:36:51.706Z,4.44
2022-12-28T03:37:51.688Z,4.47
2022-12-28T03:38:51.681Z,4.53
2022-12-28T03:39:51.655Z,4.47
2022-12-28T03:40:51.658Z,4.50
2022-12-28T03:41:51.612Z,4.43
2022-12-28T03:42:51.609Z,4.43
2022-12-28T03:43:51.573Z,4.39
2022-12-28T03:44:51.555Z,4.49
2022-12-28T03:45:51.581Z,4.46
2022-12-28T03:46:51.518Z,4.36
2022-12-28T03:47:51.502Z,4.36
2022-12-28T03:48:51.485Z,4.38
2022-12-28T03:49:51.686Z,4.32
2022-12-28T03:50:51.497Z,4.36
2022-12-28T03:51:51.454Z,4.39
2022-12-28T03:52:51.421Z,4.38
2022-12-28T03:53:51.413Z,4.39
2022-12-28T03:54:51.389Z,4.36
2022-12-28T03:55:51.398Z,4.34
2022-12-28T03:56:51.352Z,4.49
2022-12-28T03:57:51.337Z,4.56
2022-12-28T03:58:51.322Z,4.50
2022-12-28T03:59:51.305Z,4.56
2022-12-28T04:00:51.312Z,4.43
2022-12-28T04:01:51.325Z,4.50
2022-12-28T04:02:51.381Z,4.47
2022-12-28T04:03:51.226Z,4.54
2022-12-28T04:04:51.210Z,4.39
2022-12-28T04:05:51.229Z,4.50
2022-12-28T04:06:51.175Z,4.43
2022-12-28T04:07:51.171Z,4.46
2022-12-28T04:08:51.144Z,4.50
2022-12-28T04:09:51.118Z,4.43
2022-12-28T04:10:51.147Z,4.47
2022-12-28T04:11:51.085Z,4.43
2022-12-28T04:12:51.085Z,4.44
2022-12-28T04:13:51.053Z,4.56
2022-12-28T04:14:51.045Z,4.53
2022-12-28T04:15:51.090Z,4.50
2022-12-28T04:16:51.015Z,4.53
2022-12-28T04:17:50.997Z,4.56
2022-12-28T04:18:50.971Z,4.50
2022-12-28T04:19:50.971Z,4.53
2022-12-28T04:20:50.932Z,4.42
2022-12-28T04:21:50.942Z,4.49
2022-12-28T04:22:50.900Z,4.57
2022-12-28T04:23:50.876Z,4.57
2022-12-28T04:24:50.863Z,4.50
2022-12-28T04:25:50.877Z,4.51
2022-12-28T04:26:50.824Z,4.57
2022-12-28T04:27:50.817Z,4.51
2022-12-28T04:28:50.797Z,4.51
2022-12-28T04:29:50.793Z,4.44
2022-12-28T04:30:50.758Z,4.34
2022-12-28T04:31:50.769Z,4.53
2022-12-28T04:32:50.722Z,4.49
2022-12-28T04:33:50.713Z,4.49
2022-12-28T04:34:50.700Z,4.46
2022-12-28T04:35:50.687Z,4.54
2022-12-28T04:36:50.686Z,4.46
2022-12-28T04:37:50.645Z,4.32
2022-12-28T04:38:50.623Z,4.39
2022-12-28T04:39:55.610Z,4.43
2022-12-28T04:40:51.580Z,4.49
2022-12-28T04:41:50.592Z,4.49
2022-12-28T04:42:50.550Z,4.47
2022-12-28T04:43:50.525Z,4.51
2022-12-28T04:44:50.514Z,4.54
2022-12-28T04:45:50.498Z,4.53
2022-12-28T04:46:50.583Z,4.54
2022-12-28T04:47:50.466Z,4.42
2022-12-28T04:48:50.459Z,4.43
2022-12-28T04:49:50.443Z,4.42
2022-12-28T04:50:50.429Z,4.50
2022-12-28T04:51:50.427Z,4.51
2022-12-28T04:52:50.387Z,4.51
2022-12-28T04:53:50.362Z,4.57
2022-12-28T04:54:50.364Z,4.54
2022-12-28T04:55:50.326Z,4.44
2022-12-28T04:56:50.350Z,4.59
2022-12-28T04:57:50.283Z,4.50
2022-12-28T04:58:50.285Z,4.53
2022-12-28T04:59:50.258Z,4.54
2022-12-28T05:00:50.275Z,4.49
2022-12-28T05:01:50.328Z,4.53
2022-12-28T05:02:50.247Z,4.57
2022-12-28T05:03:54.976Z,4.51
2022-12-28T05:04:52.163Z,4.59
2022-12-28T05:05:50.153Z,4.56
2022-12-28T05:06:50.179Z,4.56
2022-12-28T05:07:50.129Z,4.53
2022-12-28T05:08:50.100Z,4.59
2022-12-28T05:09:50.086Z,4.59
2022-12-28T05:10:50.067Z,4.62
2022-12-28T05:11:50.080Z,4.57
2022-12-28T05:12:50.023Z,4.65
2022-12-28T05:13:50.020Z,4.59
2022-12-28T05:14:50.022Z,4.72
2022-12-28T05:15:50.083Z,4.61
2022-12-28T05:16:49.988Z,4.57
2022-12-28T05:17:49.942Z,4.61
2022-12-28T05:18:49.926Z,4.74
2022-12-28T05:19:49.908Z,4.72
2022-12-28T05:20:49.885Z,4.75
2022-12-28T05:21:49.907Z,4.72
2022-12-28T05:22:49.860Z,4.77
2022-12-28T05:23:49.849Z,4.88
2022-12-28T05:24:50.820Z,4.77
2022-12-28T05:25:49.803Z,4.71
2022-12-28T05:26:49.820Z,4.74
2022-12-28T05:27:49.776Z,4.88
2022-12-28T05:28:49.762Z,4.79
2022-12-28T05:29:49.735Z,4.83
2022-12-28T05:30:49.722Z,4.88
2022-12-28T05:31:49.762Z,4.93
2022-12-28T05:32:49.684Z,4.88
2022-12-28T05:33:49.669Z,4.93
2022-12-28T05:34:49.651Z,4.99
2022-12-28T05:35:49.675Z,4.90
2022-12-28T05:36:49.652Z,4.93
2022-12-28T05:37:49.603Z,4.96
2022-12-28T05:38:49.624Z,4.93
2022-12-28T05:39:49.578Z,5.02
2022-12-28T05:40:49.535Z,5.04
2022-12-28T05:41:49.556Z,4.99
2022-12-28T05:42:51.678Z,5.01
2022-12-28T05:43:50.494Z,5.01
2022-12-28T05:44:49.468Z,5.04
2022-12-28T05:45:49.469Z,5.01
2022-12-28T05:46:49.509Z,5.11
2022-12-28T05:47:49.429Z,5.11
2022-12-28T05:48:49.425Z,5.06
2022-12-28T05:49:49.392Z,5.17
2022-12-28T05:50:49.379Z,5.17
2022-12-28T05:51:49.389Z,5.12
2022-12-28T05:52:49.347Z,5.06
2022-12-28T05:53:49.314Z,5.17
2022-12-28T05:54:49.300Z,5.17
2022-12-28T05:55:49.285Z,5.05
2022-12-28T05:56:49.298Z,5.06
2022-12-28T05:57:49.249Z,5.12
2022-12-28T05:58:49.240Z,5.11
2022-12-28T05:59:49.214Z,5.04
2022-12-28T06:00:49.209Z,5.08
2022-12-28T06:01:49.350Z,5.08
2022-12-28T06:02:49.262Z,5.06
2022-12-28T06:03:49.151Z,5.09
2022-12-28T06:04:49.140Z,5.09
2022-12-28T06:05:49.120Z,5.14
2022-12-28T06:06:49.162Z,5.08
2022-12-28T06:07:49.083Z,5.14
2022-12-28T06:08:49.063Z,5.06
2022-12-28T06:09:49.048Z,4.99
2022-12-28T06:10:49.024Z,5.12
2022-12-28T06:11:49.039Z,5.09
2022-12-28T06:12:48.991Z,5.12
2022-12-28T06:13:48.975Z,5.12
2022-12-28T06:14:48.964Z,5.11
2022-12-28T06:15:48.959Z,5.15
2022-12-28T06:16:49.001Z,5.17
2022-12-28T06:17:48.920Z,5.19
2022-12-28T06:18:48.893Z,5.27
2022-12-28T06:19:48.891Z,5.30
2022-12-28T06:20:53.737Z,5.17
2022-12-28T06:21:50.888Z,5.27
2022-12-28T06:22:48.822Z,5.26
2022-12-28T06:23:48.810Z,5.30
2022-12-28T06:24:48.778Z,5.26
2022-12-28T06:25:48.766Z,5.35
2022-12-28T06:26:51.075Z,5.41
2022-12-28T06:27:48.743Z,5.27
2022-12-28T06:28:48.710Z,5.42
2022-12-28T06:29:48.694Z,5.42
2022-12-28T06:30:52.555Z,5.40
2022-12-28T06:31:49.733Z,5.33
2022-12-28T06:32:49.648Z,5.32
2022-12-28T06:33:48.638Z,5.42
2022-12-28T06:34:48.632Z,5.38
2022-12-28T06:35:48.595Z,5.41
2022-12-28T06:36:48.632Z,5.40
2022-12-28T06:37:48.567Z,5.33
2022-12-28T06:38:48.558Z,5.33
2022-12-28T06:39:48.530Z,5.41
2022-12-28T06:41:12.148Z,5.33
2022-12-28T06:41:50.586Z,5.38
2022-12-28T06:42:48.479Z,5.48
2022-12-28T06:43:48.484Z,5.45
2022-12-28T06:44:48.490Z,5.38
2022-12-28T06:45:48.444Z,5.40
2022-12-28T06:46:48.554Z,5.48
2022-12-28T06:47:48.407Z,5.44
2022-12-28T06:48:48.383Z,5.44
2022-12-28T06:49:48.399Z,5.48
2022-12-28T06:50:48.343Z,5.37
2022-12-28T06:51:48.363Z,5.37
2022-12-28T06:52:48.353Z,5.49
2022-12-28T06:53:48.313Z,5.55
2022-12-28T06:54:48.274Z,5.45
2022-12-28T06:55:49.035Z,5.47
2022-12-28T06:56:48.235Z,5.48
2022-12-28T06:57:49.255Z,5.48
2022-12-28T06:58:48.250Z,5.52
2022-12-28T06:59:48.212Z,5.60
2022-12-28T07:00:48.254Z,5.56
2022-12-28T07:01:48.297Z,5.58
2022-12-28T07:02:48.217Z,5.52
2022-12-28T07:03:48.139Z,5.55
2022-12-28T07:04:48.124Z,5.66
2022-12-28T07:05:48.094Z,5.66
2022-12-28T07:06:48.076Z,5.67
2022-12-28T07:07:48.096Z,5.59
2022-12-28T07:08:48.052Z,5.59
2022-12-28T07:09:48.032Z,5.66
2022-12-28T07:10:48.008Z,5.73
2022-12-28T07:11:47.997Z,5.63
2022-12-28T07:12:48.030Z,5.77
2022-12-28T07:13:47.960Z,5.75
2022-12-28T07:14:47.942Z,5.74
2022-12-28T07:15:47.927Z,5.69
2022-12-28T07:16:47.902Z,5.69
2022-12-28T07:17:47.915Z,5.78
2022-12-28T07:18:47.865Z,5.77
2022-12-28T07:19:47.872Z,5.80
2022-12-28T07:20:47.826Z,5.83
2022-12-28T07:21:47.832Z,5.83
2022-12-28T07:22:47.836Z,5.70
2022-12-28T07:23:47.784Z,5.70
2022-12-28T07:24:47.796Z,5.81
2022-12-28T07:25:47.748Z,5.80
2022-12-28T07:26:47.723Z,5.70
2022-12-28T07:27:47.738Z,5.83
2022-12-28T07:28:47.698Z,5.75
2022-12-28T07:29:47.672Z,5.83
2022-12-28T07:30:47.701Z,5.81
2022-12-28T07:31:47.632Z,5.78
2022-12-28T07:32:47.649Z,5.83
2022-12-28T07:33:47.615Z,5.84
2022-12-28T07:34:47.596Z,5.81
2022-12-28T07:35:47.569Z,5.81
2022-12-28T07:36:47.559Z,5.92
2022-12-28T07:37:47.572Z,5.98
2022-12-28T07:38:47.531Z,5.95
2022-12-28T07:39:47.505Z,5.95
2022-12-28T07:40:47.512Z,5.95
2022-12-28T07:41:47.502Z,5.95
2022-12-28T07:42:47.505Z,5.99
2022-12-28T07:43:47.429Z,5.92
2022-12-28T07:44:49.374Z,6.01
2022-12-28T07:45:48.415Z,6.05
2022-12-28T07:46:47.380Z,6.01
2022-12-28T07:47:47.413Z,6.02
2022-12-28T07:48:47.368Z,6.05
2022-12-28T07:49:47.330Z,5.99
2022-12-28T07:50:47.325Z,6.08
2022-12-28T07:51:47.318Z,6.10
2022-12-28T07:52:47.328Z,6.05
2022-12-28T07:53:47.271Z,6.16
2022-12-28T07:54:47.250Z,6.06
2022-12-28T07:55:47.239Z,6.11
2022-12-28T07:56:47.270Z,6.03
2022-12-28T07:57:47.231Z,6.16
2022-12-28T07:59:34.225Z,6.14
2022-12-28T08:00:32.929Z,6.13
2022-12-28T08:01:33.018Z,6.20
2022-12-28T08:02:34.120Z,6.19
2022-12-28T08:03:34.063Z,6.32
2022-12-28T08:04:34.004Z,6.25
2022-12-28T08:05:33.999Z,6.38
2022-12-28T08:06:33.968Z,6.33
2022-12-28T08:07:34.002Z,6.30
2022-12-28T08:08:33.940Z,6.25
2022-12-28T08:09:33.923Z,6.24
2022-12-28T08:10:33.922Z,6.24
2022-12-28T08:11:33.893Z,6.27
2022-12-28T08:12:33.865Z,6.28
2022-12-28T08:13:33.941Z,6.38
2022-12-28T08:14:33.873Z,6.38
2022-12-28T08:15:33.834Z,6.43
2022-12-28T08:16:33.815Z,6.38
2022-12-28T08:17:33.786Z,6.48
2022-12-28T08:18:33.795Z,6.40
2022-12-28T08:19:33.747Z,6.40
2022-12-28T08:20:33.767Z,6.36
2022-12-28T08:21:33.722Z,6.53
2022-12-28T08:22:33.700Z,6.38
2022-12-28T08:23:33.714Z,6.45
2022-12-28T08:24:33.663Z,6.39
2022-12-28T08:25:33.649Z,6.40
2022-12-28T08:26:33.631Z,6.39
2022-12-28T08:27:38.290Z,6.33
2022-12-28T08:28:35.634Z,6.30
2022-12-28T08:29:33.591Z,6.39
2022-12-28T08:30:33.567Z,6.43
2022-12-28T08:31:33.602Z,6.35
2022-12-28T08:32:33.533Z,6.46
2022-12-28T08:33:33.585Z,6.42
2022-12-28T08:34:33.495Z,6.42
2022-12-28T08:35:33.483Z,6.38
2022-12-28T08:36:33.459Z,6.50
2022-12-28T08:37:33.445Z,6.46
2022-12-28T08:38:33.461Z,6.48
2022-12-28T08:39:33.411Z,6.43
2022-12-28T08:40:33.391Z,6.45
2022-12-28T08:41:33.372Z,6.46
2022-12-28T08:42:33.356Z,6.42
2022-12-28T08:43:33.381Z,6.42
2022-12-28T08:44:33.318Z,6.39
2022-12-28T08:45:33.333Z,6.45
2022-12-28T08:46:33.375Z,6.55
2022-12-28T08:47:33.273Z,6.55
2022-12-28T08:48:33.274Z,6.55
2022-12-28T08:49:33.232Z,6.54
2022-12-28T08:50:33.219Z,6.54
2022-12-28T08:51:33.193Z,6.40
2022-12-28T08:52:33.191Z,6.36
2022-12-28T08:53:33.214Z,6.43
2022-12-28T08:54:33.151Z,6.42
2022-12-28T08:55:33.135Z,6.42
2022-12-28T08:56:33.159Z,6.40
2022-12-28T08:57:33.103Z,6.53
2022-12-28T08:58:33.110Z,6.55
2022-12-28T08:59:33.058Z,6.48
2022-12-28T09:00:33.050Z,6.51
2022-12-28T09:01:38.987Z,6.43
2022-12-28T09:02:35.227Z,6.50
2022-12-28T09:03:33.060Z,6.53
2022-12-28T09:04:32.982Z,6.58
2022-12-28T09:05:39.202Z,6.51
2022-12-28T09:06:34.966Z,6.51
2022-12-28T09:07:32.935Z,6.64
2022-12-28T09:08:32.949Z,6.53
2022-12-28T09:09:32.918Z,6.50
2022-12-28T09:10:32.876Z,6.50
2022-12-28T09:11:32.857Z,6.51
2022-12-28T09:12:32.839Z,6.46
2022-12-28T09:13:32.847Z,6.55
2022-12-28T09:14:32.807Z,6.51
2022-12-28T09:15:32.808Z,6.53
2022-12-28T09:16:32.769Z,6.48
2022-12-28T09:17:32.759Z,6.43
2022-12-28T09:18:32.770Z,6.42
2022-12-28T09:19:32.730Z,6.54
2022-12-28T09:20:32.719Z,6.53
2022-12-28T09:21:32.697Z,6.48
2022-12-28T09:22:32.685Z,6.57
2022-12-28T09:23:32.696Z,6.54
2022-12-28T09:24:32.648Z,6.45
2022-12-28T09:25:32.626Z,6.42
2022-12-28T09:26:32.609Z,6.42
2022-12-28T09:27:32.586Z,6.46
2022-12-28T09:28:32.597Z,6.40
2022-12-28T09:29:32.564Z,6.54
2022-12-28T09:30:32.539Z,6.43
2022-12-28T09:31:32.616Z,6.46
2022-12-28T09:32:32.497Z,6.51
2022-12-28T09:33:32.520Z,6.55
2022-12-28T09:34:36.346Z,6.65
2022-12-28T09:35:33.455Z,6.57
2022-12-28T09:36:32.435Z,6.58
2022-12-28T09:37:32.427Z,6.54
2022-12-28T09:38:32.432Z,6.64
2022-12-28T09:39:32.434Z,6.64
2022-12-28T09:40:32.374Z,6.68
2022-12-28T09:41:32.358Z,6.76
2022-12-28T09:42:32.333Z,6.69
2022-12-28T09:43:32.338Z,6.64
2022-12-28T09:44:32.331Z,6.72
2022-12-28T09:45:32.276Z,6.69
2022-12-28T09:46:32.301Z,6.73
2022-12-28T09:47:32.274Z,6.76
2022-12-28T09:48:32.259Z,6.82
2022-12-28T09:49:32.215Z,6.86
2022-12-28T09:50:32.204Z,6.71
2022-12-28T09:51:32.180Z,6.75
2022-12-28T09:52:32.165Z,6.76
2022-12-28T09:53:32.175Z,6.86
2022-12-28T09:54:32.128Z,6.81
2022-12-28T09:55:32.108Z,6.91
2022-12-28T09:56:32.092Z,6.97
2022-12-28T09:57:32.072Z,6.97
2022-12-28T09:58:32.084Z,6.91
2022-12-28T09:59:32.048Z,6.87
2022-12-28T10:00:32.018Z,6.89
2022-12-28T10:01:32.050Z,6.83
2022-12-28T10:02:32.052Z,6.91
2022-12-28T10:03:32.043Z,6.94
2022-12-28T10:04:31.949Z,7.01
2022-12-28T10:05:31.942Z,7.01
2022-12-28T10:06:31.917Z,7.05
2022-12-28T10:07:31.921Z,7.12
2022-12-28T10:08:31.920Z,7.00
2022-12-28T10:09:31.875Z,6.94
2022-12-28T10:10:31.853Z,6.86
2022-12-28T10:11:31.839Z,7.00
2022-12-28T10:12:31.822Z,7.05
2022-12-28T10:13:59.552Z,6.99
2022-12-28T10:14:33.783Z,7.05
2022-12-28T10:15:31.766Z,6.99
2022-12-28T10:16:31.801Z,7.00
2022-12-28T10:17:31.736Z,6.96
2022-12-28T10:18:37.606Z,6.93
2022-12-28T10:19:33.729Z,6.93
2022-12-28T10:20:31.719Z,6.91
2022-12-28T10:21:32.972Z,6.93
2022-12-28T10:22:32.645Z,7.15
2022-12-28T10:23:31.679Z,7.00
2022-12-28T10:24:32.600Z,7.08
2022-12-28T10:25:32.612Z,7.19
2022-12-28T10:26:31.590Z,7.18
2022-12-28T10:27:31.566Z,7.12
2022-12-28T10:28:31.609Z,7.09
2022-12-28T10:29:31.525Z,7.14
2022-12-28T10:30:31.507Z,7.23
2022-12-28T10:31:31.567Z,7.19
2022-12-28T10:32:31.486Z,7.18
2022-12-28T10:33:31.615Z,7.14
2022-12-28T10:34:34.795Z,7.18
2022-12-28T10:35:32.421Z,7.09
2022-12-28T10:36:31.793Z,7.18
2022-12-28T10:37:32.400Z,7.26
2022-12-28T10:38:31.435Z,7.30
2022-12-28T10:39:31.370Z,7.30
2022-12-28T10:40:31.346Z,7.36
2022-12-28T10:41:31.331Z,7.41
2022-12-28T10:42:31.320Z,7.34
2022-12-28T10:43:31.320Z,7.24
2022-12-28T10:44:40.008Z,7.24
2022-12-28T10:45:33.249Z,7.23
2022-12-28T10:46:31.282Z,7.32
2022-12-28T10:47:31.241Z,7.32
2022-12-28T10:48:31.234Z,7.45
2022-12-28T10:49:31.182Z,7.47
2022-12-28T10:50:38.358Z,7.48
2022-12-28T10:51:33.152Z,7.63
2022-12-28T10:52:31.148Z,7.66
2022-12-28T10:53:31.175Z,7.71
2022-12-28T10:54:31.129Z,7.74
2022-12-28T10:55:31.100Z,7.84
2022-12-28T10:56:31.145Z,7.94
2022-12-28T10:57:31.050Z,7.88
2022-12-28T10:58:33.711Z,7.84
2022-12-28T10:59:32.022Z,7.85
2022-12-28T11:00:31.102Z,7.81
2022-12-28T11:01:31.098Z,7.88
2022-12-28T11:02:31.124Z,7.85
2022-12-28T11:03:31.029Z,8.03
2022-12-28T11:04:30.933Z,8.00
2022-12-28T11:05:30.922Z,7.99
2022-12-28T11:06:30.907Z,8.04
2022-12-28T11:07:30.888Z,7.95
2022-12-28T11:08:30.916Z,7.99
2022-12-28T11:09:30.864Z,7.99
2022-12-28T11:10:30.836Z,8.12
2022-12-28T11:11:30.816Z,8.13
2022-12-28T11:12:30.796Z,8.17
2022-12-28T11:13:30.810Z,8.09
2022-12-28T11:14:30.778Z,8.00
2022-12-28T11:15:30.736Z,8.02
2022-12-28T11:16:30.787Z,8.09
2022-12-28T11:17:30.712Z,8.06
2022-12-28T11:18:36.227Z,8.00
2022-12-28T11:19:32.671Z,7.99
2022-12-28T11:20:30.670Z,7.95
2022-12-28T11:21:30.645Z,8.04
2022-12-28T11:22:30.628Z,7.99
2022-12-28T11:23:30.646Z,8.04
2022-12-28T11:24:34.758Z,8.07
2022-12-28T11:25:32.576Z,8.02
2022-12-28T11:26:30.561Z,7.96
2022-12-28T11:27:30.537Z,7.94
2022-12-28T11:28:30.571Z,7.92
2022-12-28T11:29:30.510Z,7.88
2022-12-28T11:30:30.500Z,7.89
2022-12-28T11:31:30.533Z,7.94
2022-12-28T11:32:30.468Z,8.02
2022-12-28T11:33:30.445Z,7.95
2022-12-28T11:34:30.463Z,7.86
2022-12-28T11:35:30.417Z,7.84
2022-12-28T11:36:30.425Z,7.74
2022-12-28T11:37:30.399Z,7.77
2022-12-28T11:38:30.362Z,7.84
2022-12-28T11:39:30.366Z,7.82
2022-12-28T11:40:30.318Z,7.74
2022-12-28T11:41:33.651Z,7.77
2022-12-28T11:42:40.225Z,7.79
2022-12-28T11:43:32.274Z,7.77
2022-12-28T11:44:30.291Z,7.79
2022-12-28T11:45:30.290Z,7.88
2022-12-28T11:46:30.227Z,7.81
2022-12-28T11:47:30.206Z,7.91
2022-12-28T11:48:30.178Z,7.84
2022-12-28T11:49:31.214Z,7.82
2022-12-28T11:50:30.164Z,7.74
2022-12-28T11:51:30.136Z,7.76
2022-12-28T11:52:30.156Z,7.74
2022-12-28T11:53:30.110Z,7.73
2022-12-28T11:54:30.168Z,7.76
2022-12-28T11:55:30.070Z,7.73
2022-12-28T11:56:30.050Z,7.69
2022-12-28T11:57:30.035Z,7.86
2022-12-28T11:58:30.037Z,7.74
2022-12-28T11:59:30.035Z,7.77
2022-12-28T12:00:30.004Z,7.84
2022-12-28T12:01:30.120Z,7.96
2022-12-28T12:02:30.044Z,7.81
2022-12-28T12:03:29.955Z,7.85
2022-12-28T12:04:29.947Z,7.95
2022-12-28T12:05:29.914Z,7.89
2022-12-28T12:06:34.163Z,7.99
2022-12-28T12:07:32.454Z,7.91
2022-12-28T12:08:30.846Z,7.86
2022-12-28T12:09:29.869Z,7.96
2022-12-28T12:10:29.814Z,7.88
2022-12-28T12:11:29.795Z,7.94
2022-12-28T12:12:29.786Z,7.89
2022-12-28T12:13:29.765Z,7.81
2022-12-28T12:14:29.783Z,7.92
2022-12-28T12:15:29.743Z,7.86
2022-12-28T12:16:29.738Z,7.95
2022-12-28T12:17:29.683Z,7.96
2022-12-28T12:18:29.673Z,7.92
2022-12-28T12:19:29.723Z,7.94
2022-12-28T12:20:29.676Z,7.92
2022-12-28T12:21:29.617Z,7.94
2022-12-28T12:22:29.610Z,7.96
2022-12-28T12:23:29.611Z,7.85
2022-12-28T12:24:29.613Z,7.82
2022-12-28T12:25:29.547Z,7.84
2022-12-28T12:26:29.548Z,7.86
2022-12-28T12:27:29.516Z,7.82
2022-12-28T12:28:29.502Z,7.77
2022-12-28T12:29:29.512Z,7.77
2022-12-28T12:30:29.549Z,7.84
2022-12-28T12:31:29.453Z,7.84
2022-12-28T12:32:29.434Z,7.91
2022-12-28T12:33:29.413Z,7.91
2022-12-28T12:34:29.423Z,7.86
2022-12-28T12:35:29.444Z,7.94
2022-12-28T12:36:29.361Z,8.00
2022-12-28T12:37:29.359Z,7.99
2022-12-28T12:38:29.321Z,7.99
2022-12-28T12:39:29.343Z,8.03
2022-12-28T12:40:29.323Z,7.96
2022-12-28T12:41:29.309Z,7.99
2022-12-28T12:42:29.258Z,7.94
2022-12-28T12:43:29.258Z,8.06
2022-12-28T12:44:29.277Z,7.96
2022-12-28T12:45:29.229Z,8.02
2022-12-28T12:46:29.208Z,8.00
2022-12-28T12:47:29.171Z,8.00
2022-12-28T12:48:30.158Z,7.99
2022-12-28T12:49:29.178Z,7.94
2022-12-28T12:50:29.116Z,7.88
2022-12-28T12:51:29.107Z,8.00
2022-12-28T12:52:29.081Z,7.92
2022-12-28T12:53:29.066Z,7.92
2022-12-28T12:54:29.088Z,8.09
2022-12-28T12:55:29.039Z,8.07
2022-12-28T12:56:29.031Z,8.06
2022-12-28T12:57:28.991Z,8.02
2022-12-28T12:58:28.982Z,8.04
2022-12-28T12:59:29.014Z,8.12
2022-12-28T13:00:28.949Z,8.17
2022-12-28T13:01:29.034Z,8.02
2022-12-28T13:02:29.072Z,8.12
2022-12-28T13:03:28.959Z,8.20
2022-12-28T13:04:28.921Z,8.10
2022-12-28T13:05:28.891Z,8.13
2022-12-28T13:06:28.884Z,8.17
2022-12-28T13:07:28.825Z,8.18
2022-12-28T13:08:28.822Z,8.03
2022-12-28T13:09:28.867Z,8.07
2022-12-28T13:10:28.775Z,8.12
2022-12-28T13:11:28.765Z,8.24
2022-12-28T13:12:28.757Z,8.24
2022-12-28T13:13:28.745Z,8.29
2022-12-28T13:14:28.759Z,8.29
2022-12-28T13:15:28.784Z,8.29
2022-12-28T13:16:28.673Z,8.24
2022-12-28T13:17:28.670Z,8.31
2022-12-28T13:18:45.593Z,8.18
2022-12-28T13:19:30.675Z,8.21